Barcelos, Brazil
Current Conditions -  °F | °C
As of 6:00 PM on Thursday 23 Oct 2014 (Local Time) from SBEG Reporting Station
Broken Clouds Broken Clouds  
Wind Chill: 79°   Ceiling: 10000
Heat Index: 82°   Visibility: 6mi
Dew Point: 75°   Wind: 2mph
Humidity: 89%   Direction: 320°NW
Pressure: 29.77"   Gusts: NA
Location:  0.97°S, 62.94°W
Report Text: SBEG 232200Z 32002KT 9999 FEW010 BKN100 26/24 Q1008
Loading
Personal Weather Stations






























Interactive Weather Map
Tropical Storm Tracking
New forecast layout! Learn more

10-Day Weather Forecast

Advertisements
Track Severe Weather on mobile